createdAt,value
2018-03-22T00:02:02.744Z,1015.63
2018-03-22T00:06:59.649Z,1015.69
2018-03-22T00:11:55.164Z,1015.60
2018-03-22T00:16:50.840Z,1015.51
2018-03-22T00:21:46.201Z,1015.44
2018-03-22T00:26:42.500Z,1015.38
2018-03-22T00:31:37.888Z,1015.31
2018-03-22T00:36:38.991Z,1015.21
2018-03-22T00:41:33.526Z,1015.21
2018-03-22T00:46:29.289Z,1014.98
2018-03-22T00:51:25.231Z,1014.89
2018-03-22T00:56:25.811Z,1014.75
2018-03-22T01:01:21.207Z,1014.64
2018-03-22T01:06:17.907Z,1014.56
2018-03-22T01:11:14.430Z,1014.45
2018-03-22T01:16:09.408Z,1014.27
2018-03-22T01:21:05.147Z,1014.10
2018-03-22T01:26:01.602Z,1014.02
2018-03-22T01:31:03.075Z,1013.90
2018-03-22T01:35:58.771Z,1013.68
2018-03-22T01:40:54.058Z,1013.63
2018-03-22T01:45:50.692Z,1013.50
2018-03-22T01:50:46.344Z,1013.44
2018-03-22T01:55:41.966Z,1013.47
2018-03-22T02:00:37.710Z,1013.17
2018-03-22T02:05:33.449Z,1013.20
2018-03-22T02:10:34.138Z,1013.34
2018-03-22T02:15:28.576Z,1013.12
2018-03-22T02:20:24.215Z,1013.02
2018-03-22T02:25:24.646Z,1013.07
2018-03-22T02:30:19.269Z,1012.97
2018-03-22T02:35:17.076Z,1012.77
2018-03-22T02:40:12.758Z,1012.74
2018-03-22T02:45:13.529Z,1012.59
2018-03-22T02:50:08.199Z,1012.46
2018-03-22T02:55:04.072Z,1012.31
2018-03-22T03:00:01.879Z,1012.20
2018-03-22T03:05:01.881Z,1012.06
2018-03-22T03:09:57.814Z,1011.92
2018-03-22T03:14:57.176Z,1011.76
2018-03-22T03:19:53.732Z,1011.68
2018-03-22T03:24:50.081Z,1011.65
2018-03-22T03:29:46.520Z,1011.58
2018-03-22T03:34:42.611Z,1011.42
2018-03-22T03:39:40.248Z,1011.41
2018-03-22T03:44:39.610Z,1011.28
2018-03-22T03:49:34.527Z,1011.35
2018-03-22T03:54:30.080Z,1011.34
2018-03-22T03:59:27.427Z,1011.27
2018-03-22T04:04:23.851Z,1011.19
2018-03-22T04:09:23.112Z,1011.04
2018-03-22T04:14:17.885Z,1010.91
2018-03-22T04:19:13.601Z,1010.83
2018-03-22T04:24:13.985Z,1010.70
2018-03-22T04:29:08.956Z,1010.81
2018-03-22T04:34:05.724Z,1010.64
2018-03-22T04:39:02.282Z,1010.57
2018-03-22T04:43:58.781Z,1010.54
2018-03-22T04:48:55.840Z,1010.46
2018-03-22T04:53:52.115Z,1010.38
2018-03-22T04:58:52.717Z,1010.22
2018-03-22T05:03:47.192Z,1010.12
2018-03-22T05:08:43.850Z,1010.11
2018-03-22T05:13:43.050Z,1010.00
2018-03-22T05:18:43.527Z,1009.95
2018-03-22T05:23:42.007Z,1009.91
2018-03-22T05:28:37.221Z,1009.94
2018-03-22T05:33:32.824Z,1009.70
2018-03-22T05:38:32.196Z,1009.61
2018-03-22T05:43:28.297Z,1009.54
2018-03-22T05:48:23.986Z,1009.60
2018-03-22T05:53:23.508Z,1009.47
2018-03-22T05:58:22.139Z,1009.49
2018-03-22T06:03:21.873Z,1009.49
2018-03-22T06:08:16.641Z,1009.20
2018-03-22T06:13:12.305Z,1009.20
2018-03-22T06:18:08.933Z,1009.29
2018-03-22T06:23:05.348Z,1009.19
2018-03-22T06:28:01.773Z,1009.11
2018-03-22T06:32:58.067Z,1009.01
2018-03-22T06:37:53.794Z,1009.01
2018-03-22T06:42:53.517Z,1008.96
2018-03-22T06:47:49.709Z,1008.97
2018-03-22T06:52:46.031Z,1008.97
2018-03-22T06:57:41.592Z,1008.89
2018-03-22T07:02:41.348Z,1008.93
2018-03-22T07:07:39.929Z,1008.85
2018-03-22T07:12:39.574Z,1008.78
2018-03-22T07:17:34.033Z,1008.68
2018-03-22T07:22:29.611Z,1008.56
2018-03-22T07:27:25.403Z,1008.64
2018-03-22T07:32:21.320Z,1008.47
2018-03-22T07:37:20.936Z,1008.47
2018-03-22T07:42:19.576Z,1008.49
2018-03-22T07:47:15.186Z,1008.43
2018-03-22T07:52:15.581Z,1008.45
2018-03-22T07:57:10.393Z,1008.30
2018-03-22T08:02:10.332Z,1008.21
2018-03-22T08:07:05.158Z,1008.20
2018-03-22T08:12:01.780Z,1008.14
2018-03-22T08:16:58.403Z,1008.17
2018-03-22T08:21:57.860Z,1008.14
2018-03-22T08:26:52.861Z,1008.11
2018-03-22T08:31:48.996Z,1008.03
2018-03-22T08:36:45.799Z,1007.98
2018-03-22T08:41:41.472Z,1007.94
2018-03-22T08:46:41.150Z,1007.86
2018-03-22T08:51:39.916Z,1007.84
2018-03-22T08:56:35.858Z,1007.84
2018-03-22T09:01:31.048Z,1007.82
2018-03-22T09:06:26.874Z,1007.87
2018-03-22T09:11:26.707Z,1007.79
2018-03-22T09:16:26.783Z,1007.82
2018-03-22T09:21:22.381Z,1007.71
2018-03-22T09:26:19.250Z,1007.67
2018-03-22T09:31:15.004Z,1007.58
2018-03-22T09:36:11.144Z,1007.60
2018-03-22T09:41:12.775Z,1007.58
2018-03-22T09:46:11.424Z,1007.56
2018-03-22T09:51:06.388Z,1007.53
2018-03-22T09:56:02.879Z,1007.56
2018-03-22T10:01:03.323Z,1007.39
2018-03-22T10:05:58.200Z,1007.50
2018-03-22T10:10:58.759Z,1007.48
2018-03-22T10:15:53.780Z,1007.52
2018-03-22T10:20:54.960Z,1007.37
2018-03-22T10:25:49.678Z,1007.50
2018-03-22T10:30:46.533Z,1007.36
2018-03-22T10:35:46.394Z,1007.32
2018-03-22T10:40:42.615Z,1007.28
2018-03-22T10:45:42.146Z,1007.25
2018-03-22T10:50:37.197Z,1007.21
2018-03-22T10:55:37.241Z,1007.23
2018-03-22T11:00:37.325Z,1007.16
2018-03-22T11:05:35.082Z,1007.11
2018-03-22T11:10:30.288Z,1007.10
2018-03-22T11:15:31.498Z,1006.97
2018-03-22T11:20:31.247Z,1006.89
2018-03-22T11:25:26.561Z,1006.84
2018-03-22T11:30:22.009Z,1006.86
2018-03-22T11:35:17.044Z,1006.76
2018-03-22T11:40:13.077Z,1006.73
2018-03-22T11:45:08.207Z,1006.72
2018-03-22T11:50:04.381Z,1006.75
2018-03-22T11:54:59.619Z,1006.70
2018-03-22T11:59:55.401Z,1006.67
2018-03-22T12:04:51.001Z,1006.60
2018-03-22T12:09:46.267Z,1006.57
2018-03-22T12:14:45.928Z,1006.62
2018-03-22T12:19:40.825Z,1006.60
2018-03-22T12:24:37.668Z,1006.55
2018-03-22T12:29:39.030Z,1006.51
2018-03-22T12:34:36.574Z,1006.48
2018-03-22T12:39:32.512Z,1006.39
2018-03-22T12:44:29.483Z,1006.40
2018-03-22T12:49:29.960Z,1006.27
2018-03-22T12:54:29.819Z,1006.33
2018-03-22T12:59:24.541Z,1006.32
2018-03-22T13:04:20.210Z,1006.30
2018-03-22T13:09:19.477Z,1006.21
2018-03-22T13:14:15.602Z,1006.25
2018-03-22T13:19:15.736Z,1006.15
2018-03-22T13:24:11.800Z,1006.02
2018-03-22T13:29:08.872Z,1006.11
2018-03-22T13:34:09.218Z,1006.07
2018-03-22T13:39:05.424Z,1006.15
2018-03-22T13:44:01.905Z,1006.08
2018-03-22T13:48:57.370Z,1006.07
2018-03-22T13:53:52.795Z,1006.04
2018-03-22T13:58:48.186Z,1006.06
2018-03-22T14:03:47.937Z,1005.96
2018-03-22T14:08:47.670Z,1006.01
2018-03-22T14:13:42.482Z,1005.96
2018-03-22T14:18:37.957Z,1005.99
2018-03-22T14:23:37.551Z,1005.94
2018-03-22T14:28:36.910Z,1005.92
2018-03-22T14:33:36.658Z,1005.89
2018-03-22T14:38:31.137Z,1005.82
2018-03-22T14:43:30.831Z,1005.89
2018-03-22T14:48:25.574Z,1005.83
2018-03-22T14:53:26.367Z,1005.71
2018-03-22T14:58:24.851Z,1005.71
2018-03-22T15:03:23.641Z,1005.63
2018-03-22T15:08:18.706Z,1005.63
2018-03-22T15:13:18.681Z,1005.56
2018-03-22T15:18:13.520Z,1005.52
2018-03-22T15:23:10.019Z,1005.57
2018-03-22T15:28:06.387Z,1005.61
2018-03-22T15:33:01.903Z,1005.53
2018-03-22T15:38:02.478Z,1005.67
2018-03-22T15:42:57.408Z,1005.51
2018-03-22T15:47:54.145Z,1005.65
2018-03-22T15:52:54.533Z,1005.71
2018-03-22T15:57:53.038Z,1005.68
2018-03-22T16:02:47.848Z,1005.73
2018-03-22T16:07:43.503Z,1005.66
2018-03-22T16:12:44.177Z,1005.72
2018-03-22T16:17:38.891Z,1005.66
2018-03-22T16:22:35.028Z,1005.70
2018-03-22T16:27:30.703Z,1005.71
2018-03-22T16:32:27.370Z,1005.72
2018-03-22T16:37:23.897Z,1005.59
2018-03-22T16:42:19.257Z,1005.63
2018-03-22T16:47:15.072Z,1005.53
2018-03-22T16:52:10.541Z,1005.65
2018-03-22T16:57:06.239Z,1005.63
2018-03-22T17:02:01.965Z,1005.53
2018-03-22T17:06:57.537Z,1005.53
2018-03-22T17:11:57.140Z,1005.62
2018-03-22T17:16:56.660Z,1005.63
2018-03-22T17:21:52.027Z,1005.62
2018-03-22T17:26:51.296Z,1005.57
2018-03-22T17:31:47.824Z,1005.69
2018-03-22T17:36:47.058Z,1005.86
2018-03-22T17:41:41.873Z,1005.76
2018-03-22T17:46:41.432Z,1005.80
2018-03-22T17:51:41.755Z,1005.86
2018-03-22T17:56:36.271Z,1005.74
2018-03-22T18:01:36.956Z,1005.79
2018-03-22T18:06:31.693Z,1005.77
2018-03-22T18:11:31.298Z,1005.78
2018-03-22T18:16:29.997Z,1005.79
2018-03-22T18:21:25.076Z,1005.79
2018-03-22T18:26:20.678Z,1005.75
2018-03-22T18:31:20.253Z,1005.79
2018-03-22T18:36:19.157Z,1005.89
2018-03-22T18:41:18.990Z,1005.94
2018-03-22T18:46:18.638Z,1005.79
2018-03-22T18:51:17.302Z,1005.81
2018-03-22T18:56:12.206Z,1005.81
2018-03-22T19:01:11.882Z,1005.77
2018-03-22T19:06:08.039Z,1005.85
2018-03-22T19:11:03.523Z,1005.87
2018-03-22T19:16:00.234Z,1005.87
2018-03-22T19:21:00.752Z,1005.74
2018-03-22T19:26:00.916Z,1005.84
2018-03-22T19:30:56.482Z,1005.90
2018-03-22T19:35:52.842Z,1005.86
2018-03-22T19:40:48.231Z,1005.96
2018-03-22T19:45:44.497Z,1005.91
2018-03-22T19:50:41.266Z,1005.91
2018-03-22T19:55:36.579Z,1005.96
2018-03-22T20:00:32.907Z,1005.79
2018-03-22T20:05:32.950Z,1005.88
2018-03-22T20:10:28.839Z,1005.77
2018-03-22T20:15:24.332Z,1005.72
2018-03-22T20:20:23.972Z,1005.64
2018-03-22T20:25:18.663Z,1005.73
2018-03-22T20:30:15.974Z,1005.75
2018-03-22T20:35:15.342Z,1005.76
2018-03-22T20:40:09.847Z,1005.72
2018-03-22T20:45:05.666Z,1005.77
2018-03-22T20:50:01.269Z,1005.85
2018-03-22T20:54:58.265Z,1005.80
2018-03-22T20:59:54.364Z,1005.70
2018-03-22T21:04:55.072Z,1005.75
2018-03-22T21:09:54.494Z,1005.72
2018-03-22T21:14:50.514Z,1005.69
2018-03-22T21:19:50.365Z,1005.65
2018-03-22T21:24:50.023Z,1005.66
2018-03-22T21:29:44.711Z,1005.64
2018-03-22T21:34:45.414Z,1005.64
2018-03-22T21:39:44.055Z,1005.74
2018-03-22T21:44:42.953Z,1005.73
2018-03-22T21:49:42.705Z,1005.72
2018-03-22T21:54:41.285Z,1005.67
2018-03-22T21:59:40.479Z,1005.66
2018-03-22T22:04:39.237Z,1005.65
2018-03-22T22:09:34.122Z,1005.58
2018-03-22T22:14:29.855Z,1005.51
2018-03-22T22:19:25.096Z,1005.55
2018-03-22T22:24:25.452Z,1005.48
2018-03-22T22:29:21.440Z,1005.50
2018-03-22T22:34:20.723Z,1005.40
2018-03-22T22:39:19.372Z,1005.41
2018-03-22T22:44:13.972Z,1005.36
2018-03-22T22:49:10.971Z,1005.28
2018-03-22T22:54:06.888Z,1005.25
2018-03-22T22:59:03.740Z,1005.18
2018-03-22T23:04:03.156Z,1005.10
2018-03-22T23:08:59.048Z,1004.99
2018-03-22T23:13:55.983Z,1004.97
2018-03-22T23:18:51.502Z,1005.01
2018-03-22T23:23:47.278Z,1004.96
2018-03-22T23:28:46.601Z,1004.89
2018-03-22T23:33:41.820Z,1004.81
2018-03-22T23:38:37.482Z,1004.83
2018-03-22T23:43:38.299Z,1004.76
2018-03-22T23:48:36.834Z,1004.76
2018-03-22T23:53:31.829Z,1004.76
2018-03-22T23:58:28.595Z,1004.74
